createdAt,value
2022-10-18T00:02:11.028Z,56.85
2022-10-18T00:04:37.651Z,56.81
2022-10-18T00:07:04.159Z,57.18
2022-10-18T00:09:30.731Z,57.00
2022-10-18T00:11:57.363Z,56.92
2022-10-18T00:14:23.956Z,57.21
2022-10-18T00:16:50.409Z,57.75
2022-10-18T00:19:16.844Z,56.98
2022-10-18T00:24:14.765Z,57.77
2022-10-18T00:26:41.377Z,57.42
2022-10-18T00:29:07.943Z,57.41
2022-10-18T00:31:36.839Z,56.85
2022-10-18T00:34:10.336Z,57.37
2022-10-18T00:36:36.997Z,57.54
2022-10-18T00:39:05.667Z,57.63
2022-10-18T00:41:34.490Z,57.50
2022-10-18T00:44:04.000Z,57.46
2022-10-18T00:46:33.205Z,57.36
2022-10-18T00:49:04.085Z,57.52
2022-10-18T00:51:34.760Z,57.53
2022-10-18T00:54:01.345Z,57.47
2022-10-18T00:56:28.587Z,57.66
2022-10-18T00:58:55.235Z,57.13
2022-10-18T01:01:24.485Z,56.83
2022-10-18T01:03:54.725Z,57.59
2022-10-18T01:06:21.361Z,56.80
2022-10-18T01:08:58.409Z,57.45
2022-10-18T01:11:52.330Z,57.32
2022-10-18T01:14:21.792Z,57.57
2022-10-18T01:16:58.217Z,56.99
2022-10-18T01:19:58.407Z,57.81
2022-10-18T01:22:32.692Z,57.66
2022-10-18T01:25:34.543Z,57.87
2022-10-18T01:28:36.595Z,57.12
2022-10-18T01:31:18.664Z,57.13
2022-10-18T01:34:03.447Z,57.56
2022-10-18T01:36:35.940Z,57.32
2022-10-18T01:39:06.960Z,57.12
2022-10-18T01:41:37.103Z,57.17
2022-10-18T01:44:07.200Z,57.66
2022-10-18T01:46:33.745Z,56.95
2022-10-18T01:49:00.356Z,57.62
2022-10-18T01:51:28.631Z,57.51
2022-10-18T01:53:55.144Z,56.93
2022-10-18T01:56:30.557Z,57.80
2022-10-18T01:59:02.740Z,57.68
2022-10-18T02:01:41.079Z,57.10
2022-10-18T02:04:20.957Z,57.17
2022-10-18T02:06:53.679Z,57.64
2022-10-18T02:09:30.117Z,57.22
2022-10-18T02:11:58.310Z,57.56
2022-10-18T02:14:25.772Z,57.23
2022-10-18T02:16:56.881Z,57.77
2022-10-18T02:19:37.796Z,57.70
2022-10-18T02:22:05.596Z,57.17
2022-10-18T02:24:38.064Z,57.31
2022-10-18T02:27:04.609Z,57.59
2022-10-18T02:29:31.867Z,56.99
2022-10-18T02:32:18.293Z,57.74
2022-10-18T02:34:59.058Z,57.65
2022-10-18T02:37:30.736Z,57.55
2022-10-18T02:39:57.449Z,57.29
2022-10-18T02:42:24.049Z,57.80
2022-10-18T02:44:50.669Z,57.34
2022-10-18T02:47:17.167Z,57.59
2022-10-18T02:49:43.737Z,57.65
2022-10-18T02:52:10.192Z,57.74
2022-10-18T02:54:36.644Z,57.19
2022-10-18T02:57:03.362Z,57.48
2022-10-18T02:59:29.848Z,57.52
2022-10-18T03:01:56.345Z,57.57
2022-10-18T03:04:22.939Z,57.93
2022-10-18T03:06:49.472Z,57.28
2022-10-18T03:09:15.926Z,57.12
2022-10-18T03:11:42.402Z,57.01
2022-10-18T03:14:08.868Z,57.48
2022-10-18T03:16:35.343Z,57.65
2022-10-18T03:19:01.973Z,57.06
2022-10-18T03:21:28.426Z,57.16
2022-10-18T03:23:54.930Z,57.37
2022-10-18T03:26:21.626Z,57.12
2022-10-18T03:28:48.199Z,57.63
2022-10-18T03:31:14.717Z,57.06
2022-10-18T03:33:41.159Z,56.86
2022-10-18T03:36:07.770Z,57.23
2022-10-18T03:38:34.315Z,57.16
2022-10-18T03:41:00.785Z,57.27
2022-10-18T03:43:27.377Z,57.02
2022-10-18T03:45:53.897Z,57.17
2022-10-18T03:48:20.380Z,57.21
2022-10-18T03:50:46.972Z,57.15
2022-10-18T03:53:13.411Z,57.44
2022-10-18T03:55:40.153Z,57.50
2022-10-18T03:58:07.017Z,57.49
2022-10-18T04:00:33.480Z,57.23
2022-10-18T04:03:00.115Z,56.80
2022-10-18T04:05:28.386Z,57.19
2022-10-18T04:07:55.006Z,57.23
2022-10-18T04:10:21.775Z,57.77
2022-10-18T04:12:48.229Z,57.63
2022-10-18T04:15:14.765Z,57.38
2022-10-18T04:17:41.369Z,56.83
2022-10-18T04:20:08.117Z,57.68
2022-10-18T04:22:34.685Z,57.07
2022-10-18T04:25:01.290Z,57.29
2022-10-18T04:27:27.741Z,57.17
2022-10-18T04:29:54.179Z,57.37
2022-10-18T04:32:20.669Z,57.64
2022-10-18T04:34:47.126Z,57.28
2022-10-18T04:37:13.807Z,57.36
2022-10-18T04:39:40.411Z,57.54
2022-10-18T04:42:06.873Z,57.44
2022-10-18T04:44:34.337Z,57.52
2022-10-18T04:47:00.862Z,57.61
2022-10-18T04:49:27.325Z,57.42
2022-10-18T04:51:53.848Z,57.15
2022-10-18T04:54:21.865Z,57.29
2022-10-18T04:56:50.370Z,57.32
2022-10-18T04:59:16.841Z,57.01
2022-10-18T05:01:43.409Z,57.56
2022-10-18T05:04:09.960Z,57.07
2022-10-18T05:06:36.416Z,57.02
2022-10-18T05:09:02.891Z,57.42
2022-10-18T05:11:29.380Z,57.68
2022-10-18T05:13:55.908Z,56.81
2022-10-18T05:16:22.474Z,57.58
2022-10-18T05:18:48.920Z,57.43
2022-10-18T05:21:16.353Z,57.36
2022-10-18T05:23:42.925Z,57.71
2022-10-18T05:26:09.593Z,57.76
2022-10-18T05:28:40.419Z,56.93
2022-10-18T05:31:09.907Z,57.46
2022-10-18T05:33:36.388Z,57.64
2022-10-18T05:36:03.240Z,57.57
2022-10-18T05:38:32.931Z,57.37
2022-10-18T05:40:59.575Z,57.52
2022-10-18T05:43:29.875Z,57.45
2022-10-18T05:45:56.416Z,57.77
2022-10-18T05:48:23.201Z,57.73
2022-10-18T05:50:49.673Z,57.38
2022-10-18T05:53:35.795Z,57.83
2022-10-18T05:56:03.373Z,57.15
2022-10-18T05:58:29.900Z,57.57
2022-10-18T06:00:59.796Z,57.57
2022-10-18T06:03:27.748Z,57.18
2022-10-18T06:06:06.067Z,57.78
2022-10-18T06:08:33.739Z,57.51
2022-10-18T06:11:00.326Z,57.24
2022-10-18T06:13:27.165Z,57.18
2022-10-18T06:15:57.652Z,57.62
2022-10-18T06:18:24.571Z,57.69
2022-10-18T06:20:57.567Z,57.69
2022-10-18T06:23:24.006Z,57.28
2022-10-18T06:25:50.465Z,57.00
2022-10-18T06:28:16.953Z,57.63
2022-10-18T06:30:44.456Z,57.08
2022-10-18T06:33:11.969Z,57.33
2022-10-18T06:35:38.412Z,57.28
2022-10-18T06:38:06.264Z,57.21
2022-10-18T06:40:37.809Z,57.43
2022-10-18T06:43:20.053Z,57.44
2022-10-18T06:45:47.368Z,57.11
2022-10-18T06:48:13.890Z,57.51
2022-10-18T06:50:40.520Z,57.34
2022-10-18T06:53:08.668Z,57.27
2022-10-18T06:55:35.880Z,57.49
2022-10-18T06:58:02.319Z,57.22
2022-10-18T07:00:28.823Z,57.15
2022-10-18T07:02:56.435Z,57.20
2022-10-18T07:05:22.956Z,57.84
2022-10-18T07:07:52.915Z,57.22
2022-10-18T07:10:22.793Z,57.78
2022-10-18T07:12:49.251Z,57.37
2022-10-18T07:15:17.793Z,57.09
2022-10-18T07:17:47.856Z,57.21
2022-10-18T07:20:14.388Z,57.72
2022-10-18T07:22:40.943Z,57.07
2022-10-18T07:25:07.784Z,57.59
2022-10-18T07:27:39.093Z,57.10
2022-10-18T07:30:07.920Z,57.58
2022-10-18T07:32:34.468Z,56.98
2022-10-18T07:35:02.680Z,57.12
2022-10-18T07:37:30.447Z,57.48
2022-10-18T07:39:56.982Z,57.24
2022-10-18T07:42:23.645Z,57.40
2022-10-18T07:44:50.574Z,56.85
2022-10-18T07:47:17.239Z,57.49
2022-10-18T07:49:43.822Z,57.01
2022-10-18T07:52:11.015Z,56.93
2022-10-18T07:54:37.553Z,56.80
2022-10-18T07:57:04.961Z,57.52
2022-10-18T07:59:31.451Z,57.07
2022-10-18T08:01:57.955Z,57.37
2022-10-18T08:04:24.483Z,57.34
2022-10-18T08:06:50.999Z,57.36
2022-10-18T08:09:17.494Z,57.30
2022-10-18T08:11:44.009Z,57.38
2022-10-18T08:14:10.503Z,57.17
2022-10-18T08:16:36.963Z,56.74
2022-10-18T08:19:04.260Z,56.97
2022-10-18T08:21:30.743Z,57.35
2022-10-18T08:23:57.199Z,56.88
2022-10-18T08:26:23.900Z,57.15
2022-10-18T08:28:58.244Z,57.00
2022-10-18T08:31:30.859Z,57.11
2022-10-18T08:33:57.513Z,56.77
2022-10-18T08:36:24.711Z,57.26
2022-10-18T08:38:51.713Z,56.78
2022-10-18T08:41:39.355Z,57.33
2022-10-18T08:44:21.220Z,56.72
2022-10-18T08:47:04.063Z,57.23
2022-10-18T08:49:57.989Z,56.74
2022-10-18T08:52:47.759Z,56.76
2022-10-18T08:55:19.967Z,57.15
2022-10-18T08:57:48.291Z,57.28
2022-10-18T09:00:20.513Z,56.96
2022-10-18T09:03:17.414Z,57.40
2022-10-18T09:05:52.491Z,57.32
2022-10-18T09:08:44.785Z,57.96
2022-10-18T09:11:32.993Z,57.50
2022-10-18T09:14:15.104Z,57.65
2022-10-18T09:16:56.908Z,57.78
2022-10-18T09:19:48.090Z,57.41
2022-10-18T09:22:18.087Z,57.51
2022-10-18T09:24:53.706Z,57.15
2022-10-18T09:27:22.520Z,57.33
2022-10-18T09:29:51.905Z,58.01
2022-10-18T09:32:48.284Z,57.56
2022-10-18T09:35:21.162Z,57.13
2022-10-18T09:37:48.457Z,57.75
2022-10-18T09:40:36.473Z,57.75
2022-10-18T09:43:24.825Z,57.32
2022-10-18T09:45:53.421Z,57.08
2022-10-18T09:49:01.304Z,57.68
2022-10-18T09:51:34.804Z,57.20
2022-10-18T09:54:04.903Z,56.97
2022-10-18T09:56:45.640Z,57.21
2022-10-18T09:59:46.924Z,56.94
2022-10-18T10:02:15.878Z,57.36
2022-10-18T10:04:42.856Z,57.13
2022-10-18T10:07:13.752Z,57.28
2022-10-18T10:09:46.309Z,56.86
2022-10-18T10:12:37.625Z,56.48
2022-10-18T10:15:31.210Z,56.80
2022-10-18T10:18:17.324Z,56.34
2022-10-18T10:20:45.524Z,56.53
2022-10-18T10:23:38.930Z,56.27
2022-10-18T10:26:20.812Z,56.51
2022-10-18T10:28:48.854Z,56.62
2022-10-18T10:31:22.396Z,56.46
2022-10-18T10:34:00.195Z,56.21
2022-10-18T10:36:26.814Z,56.16
2022-10-18T10:39:13.015Z,56.24
2022-10-18T10:41:41.316Z,56.43
2022-10-18T10:44:23.372Z,55.94
2022-10-18T10:46:51.469Z,56.17
2022-10-18T10:49:40.119Z,55.99
2022-10-18T10:52:26.990Z,56.10
2022-10-18T10:55:05.749Z,56.07
2022-10-18T10:57:38.582Z,55.91
2022-10-18T11:00:05.452Z,55.80
2022-10-18T11:02:34.624Z,55.80
2022-10-18T11:05:23.507Z,55.84
2022-10-18T11:07:52.232Z,55.74
2022-10-18T11:10:22.811Z,55.65
2022-10-18T11:13:03.753Z,55.51
2022-10-18T11:15:36.480Z,55.71
2022-10-18T11:18:21.325Z,55.45
2022-10-18T11:20:55.238Z,55.43
2022-10-18T11:23:30.855Z,55.68
2022-10-18T11:26:12.296Z,55.78
2022-10-18T11:29:01.729Z,55.63
2022-10-18T11:31:40.073Z,55.48
2022-10-18T11:34:34.963Z,55.28
2022-10-18T11:37:33.261Z,55.54
2022-10-18T11:40:29.821Z,55.50
2022-10-18T11:43:30.268Z,55.55
2022-10-18T11:46:15.780Z,55.56
2022-10-18T11:49:00.213Z,55.19
2022-10-18T11:51:34.073Z,55.35
2022-10-18T11:54:30.126Z,54.83
2022-10-18T11:57:28.259Z,55.39
2022-10-18T12:00:03.139Z,55.28
2022-10-18T12:02:29.839Z,55.54
2022-10-18T12:05:22.452Z,55.42
2022-10-18T12:08:25.426Z,55.23
2022-10-18T12:11:05.211Z,55.10
2022-10-18T12:13:41.191Z,55.17
2022-10-18T12:16:10.081Z,54.92
2022-10-18T12:18:50.003Z,54.85
2022-10-18T12:21:23.262Z,55.03
2022-10-18T12:23:59.400Z,55.09
2022-10-18T12:26:28.357Z,54.89
2022-10-18T12:29:13.719Z,55.17
2022-10-18T12:31:46.300Z,54.97
2022-10-18T12:34:22.697Z,54.99
2022-10-18T12:36:58.126Z,54.75
2022-10-18T12:39:43.470Z,55.04
2022-10-18T12:42:29.631Z,54.65
2022-10-18T12:45:21.753Z,54.69
2022-10-18T12:47:48.285Z,54.58
2022-10-18T12:50:28.132Z,54.54
2022-10-18T12:53:15.604Z,54.99
2022-10-18T12:55:48.925Z,54.51
2022-10-18T12:58:15.473Z,54.49
2022-10-18T13:00:53.069Z,54.50
2022-10-18T13:03:25.304Z,54.42
2022-10-18T13:06:02.901Z,54.17
2022-10-18T13:08:38.122Z,54.49
2022-10-18T13:11:10.893Z,54.28
2022-10-18T13:17:01.009Z,54.52
2022-10-18T13:19:33.783Z,54.40
2022-10-18T13:22:47.605Z,54.25
2022-10-18T13:25:20.591Z,53.98
2022-10-18T13:28:02.306Z,54.40
2022-10-18T13:30:53.141Z,54.13
2022-10-18T13:33:33.139Z,54.10
2022-10-18T13:36:05.262Z,53.86
2022-10-18T13:38:41.530Z,54.16
2022-10-18T13:41:15.800Z,54.02
2022-10-18T13:44:23.708Z,54.22
2022-10-18T13:46:50.095Z,53.67
2022-10-18T13:49:31.633Z,54.12
2022-10-18T13:52:26.069Z,53.51
2022-10-18T13:55:17.392Z,53.89
2022-10-18T13:58:18.012Z,54.00
2022-10-18T14:01:23.903Z,53.55
2022-10-18T14:04:14.635Z,53.65
2022-10-18T14:06:43.910Z,53.85
2022-10-18T14:09:32.935Z,53.58
2022-10-18T14:12:28.605Z,54.14
2022-10-18T14:15:07.701Z,54.21
2022-10-18T14:17:42.422Z,54.16
2022-10-18T14:20:27.369Z,53.94
2022-10-18T14:22:55.896Z,53.63
2022-10-18T14:25:26.546Z,54.12
2022-10-18T14:28:16.580Z,54.16
2022-10-18T14:31:09.191Z,53.44
2022-10-18T14:33:48.068Z,53.44
2022-10-18T14:36:22.629Z,53.58
2022-10-18T14:38:58.200Z,53.80
2022-10-18T14:41:27.712Z,53.46
2022-10-18T14:44:15.616Z,53.51
2022-10-18T14:46:44.315Z,53.46
2022-10-18T14:49:12.490Z,53.33
2022-10-18T14:51:41.954Z,53.43
2022-10-18T14:54:16.422Z,53.39
2022-10-18T14:56:44.474Z,53.22
2022-10-18T14:59:21.979Z,53.21
2022-10-18T15:02:05.356Z,53.20
2022-10-18T15:04:34.820Z,53.34
2022-10-18T15:07:07.736Z,53.18
2022-10-18T15:09:36.841Z,53.18
2022-10-18T15:12:06.589Z,53.19
2022-10-18T15:14:34.761Z,53.60
2022-10-18T15:17:12.882Z,53.30
2022-10-18T15:19:39.625Z,53.30
2022-10-18T15:25:15.714Z,53.26
2022-10-18T15:27:51.254Z,52.93
2022-10-18T15:30:36.342Z,53.06
2022-10-18T15:33:05.368Z,53.10
2022-10-18T15:35:34.775Z,53.09
2022-10-18T15:38:23.116Z,53.02
2022-10-18T15:40:49.810Z,52.62
2022-10-18T15:43:25.387Z,51.88
2022-10-18T15:46:03.482Z,51.51
2022-10-18T15:48:37.561Z,51.67
2022-10-18T15:51:06.820Z,51.21
2022-10-18T15:53:44.474Z,51.08
2022-10-18T15:56:38.174Z,50.70
2022-10-18T15:59:20.817Z,50.77
2022-10-18T16:01:47.417Z,51.02
2022-10-18T16:04:20.887Z,50.83
2022-10-18T16:06:47.467Z,51.35
2022-10-18T16:09:17.003Z,51.57
2022-10-18T16:11:43.504Z,51.50
2022-10-18T16:14:10.169Z,51.44
2022-10-18T16:16:37.089Z,51.52
2022-10-18T16:19:03.690Z,51.60
2022-10-18T16:21:36.630Z,51.81
2022-10-18T16:24:04.253Z,51.68
2022-10-18T16:26:31.291Z,52.17
2022-10-18T16:28:58.406Z,52.04
2022-10-18T16:31:28.213Z,51.96
2022-10-18T16:33:55.980Z,52.04
2022-10-18T16:36:25.375Z,51.77
2022-10-18T16:38:52.221Z,52.07
2022-10-18T16:41:19.009Z,52.34
2022-10-18T16:43:47.507Z,51.93
2022-10-18T16:46:21.927Z,52.19
2022-10-18T16:48:50.070Z,52.12
2022-10-18T16:51:17.326Z,52.30
2022-10-18T16:53:44.671Z,52.05
2022-10-18T16:56:15.518Z,52.35
2022-10-18T16:58:42.939Z,52.30
2022-10-18T17:01:13.566Z,52.45
2022-10-18T17:03:40.905Z,52.34
2022-10-18T17:06:18.210Z,52.34
2022-10-18T17:08:45.175Z,52.17
2022-10-18T17:11:13.030Z,52.40
2022-10-18T17:13:39.596Z,52.24
2022-10-18T17:16:06.697Z,52.16
2022-10-18T17:18:33.236Z,52.25
2022-10-18T17:21:03.524Z,52.26
2022-10-18T17:23:30.468Z,52.22
2022-10-18T17:26:06.822Z,52.16
2022-10-18T17:28:36.424Z,51.91
2022-10-18T17:31:06.300Z,51.96
2022-10-18T17:33:32.858Z,51.94
2022-10-18T17:35:59.475Z,51.89
2022-10-18T17:38:25.999Z,52.09
2022-10-18T17:40:53.347Z,52.23
2022-10-18T17:43:20.190Z,51.83
2022-10-18T17:45:54.605Z,52.06
2022-10-18T17:48:21.351Z,52.10
2022-10-18T17:50:48.073Z,52.24
2022-10-18T17:53:14.699Z,52.16
2022-10-18T17:55:41.143Z,52.08
2022-10-18T17:58:07.944Z,51.85
2022-10-18T18:00:34.456Z,52.06
2022-10-18T18:03:01.278Z,51.78
2022-10-18T18:05:32.624Z,51.86
2022-10-18T18:08:02.950Z,52.12
2022-10-18T18:10:33.120Z,52.07
2022-10-18T18:12:59.650Z,51.85
2022-10-18T18:15:26.260Z,52.34
2022-10-18T18:17:57.049Z,52.39
2022-10-18T18:20:24.535Z,52.05
2022-10-18T18:22:51.592Z,52.23
2022-10-18T18:25:18.320Z,52.28
2022-10-18T18:27:44.797Z,52.17
2022-10-18T18:30:11.579Z,51.97
2022-10-18T18:32:38.141Z,52.66
2022-10-18T18:35:04.944Z,52.42
2022-10-18T18:37:31.472Z,52.65
2022-10-18T18:39:58.010Z,52.59
2022-10-18T18:42:24.469Z,52.43
2022-10-18T18:44:51.000Z,53.19
2022-10-18T18:47:21.200Z,52.65
2022-10-18T18:49:47.814Z,52.68
2022-10-18T18:52:14.316Z,53.08
2022-10-18T18:54:40.776Z,53.22
2022-10-18T18:57:07.311Z,53.25
2022-10-18T18:59:34.117Z,52.83
2022-10-18T19:02:00.609Z,53.07
2022-10-18T19:04:28.953Z,53.06
2022-10-18T19:06:55.448Z,53.34
2022-10-18T19:09:22.865Z,53.30
2022-10-18T19:11:52.354Z,53.20
2022-10-18T19:14:19.448Z,53.17
2022-10-18T19:16:50.505Z,53.49
2022-10-18T19:19:19.695Z,53.50
2022-10-18T19:21:49.211Z,53.42
2022-10-18T19:24:15.843Z,53.40
2022-10-18T19:26:45.723Z,53.27
2022-10-18T19:29:18.996Z,53.39
2022-10-18T19:31:45.657Z,53.43
2022-10-18T19:34:14.195Z,53.32
2022-10-18T19:36:42.300Z,53.71
2022-10-18T19:39:15.580Z,53.53
2022-10-18T19:41:42.126Z,53.41
2022-10-18T19:44:08.599Z,53.61
2022-10-18T19:46:35.135Z,53.55
2022-10-18T19:49:01.651Z,53.53
2022-10-18T19:51:28.639Z,53.46
2022-10-18T19:53:56.490Z,53.85
2022-10-18T19:56:25.177Z,53.75
2022-10-18T19:58:52.017Z,53.97
2022-10-18T20:01:19.401Z,53.63
2022-10-18T20:03:47.048Z,54.29
2022-10-18T20:06:13.769Z,53.80
2022-10-18T20:08:40.284Z,53.82
2022-10-18T20:11:09.800Z,53.64
2022-10-18T20:13:37.048Z,54.05
2022-10-18T20:16:05.359Z,53.73
2022-10-18T20:18:31.885Z,53.74
2022-10-18T20:20:58.562Z,53.80
2022-10-18T20:23:25.383Z,54.03
2022-10-18T20:26:03.172Z,54.06
2022-10-18T20:28:30.067Z,54.17
2022-10-18T20:31:08.931Z,54.25
2022-10-18T20:33:36.307Z,53.91
2022-10-18T20:36:08.243Z,53.72
2022-10-18T20:38:36.781Z,53.99
2022-10-18T20:41:07.876Z,53.57
2022-10-18T20:43:34.932Z,53.76
2022-10-18T20:46:02.580Z,53.96
2022-10-18T20:48:30.222Z,54.28
2022-10-18T20:50:56.968Z,53.68
2022-10-18T20:53:23.752Z,53.85
2022-10-18T20:55:50.427Z,54.06
2022-10-18T20:58:17.279Z,53.75
2022-10-18T21:00:43.760Z,54.08
2022-10-18T21:05:36.721Z,53.90
2022-10-18T21:08:03.191Z,54.40
2022-10-18T21:10:29.657Z,54.08
2022-10-18T21:12:56.341Z,53.92
2022-10-18T21:15:22.792Z,54.04
2022-10-18T21:17:51.443Z,54.43
2022-10-18T21:20:18.301Z,54.03
2022-10-18T21:22:44.802Z,54.31
2022-10-18T21:25:11.369Z,53.72
2022-10-18T21:27:37.872Z,54.47
2022-10-18T21:30:04.764Z,53.95
2022-10-18T21:32:31.553Z,53.94
2022-10-18T21:34:58.335Z,54.36
2022-10-18T21:37:24.790Z,54.16
2022-10-18T21:39:51.253Z,54.15
2022-10-18T21:42:17.734Z,53.88
2022-10-18T21:44:44.222Z,53.98
2022-10-18T21:47:10.691Z,54.06
2022-10-18T21:49:37.315Z,54.17
2022-10-18T21:52:05.315Z,54.19
2022-10-18T21:54:32.002Z,54.53
2022-10-18T21:56:58.495Z,54.06
2022-10-18T21:59:25.039Z,53.97
2022-10-18T22:01:51.951Z,54.31
2022-10-18T22:04:27.525Z,54.48
2022-10-18T22:06:54.042Z,54.24
2022-10-18T22:09:21.648Z,54.44
2022-10-18T22:11:51.478Z,53.92
2022-10-18T22:14:18.005Z,54.50
2022-10-18T22:16:44.480Z,54.45
2022-10-18T22:19:11.265Z,53.94
2022-10-18T22:21:37.795Z,54.17
2022-10-18T22:24:06.971Z,54.13
2022-10-18T22:26:37.078Z,54.42
2022-10-18T22:29:10.878Z,54.04
2022-10-18T22:31:40.087Z,54.65
2022-10-18T22:34:10.159Z,54.59
2022-10-18T22:36:36.704Z,54.45
2022-10-18T22:39:05.363Z,54.62
2022-10-18T22:41:32.965Z,54.19
2022-10-18T22:44:02.588Z,54.52
2022-10-18T22:46:30.642Z,54.44
2022-10-18T22:48:57.131Z,54.33
2022-10-18T22:51:23.700Z,54.74
2022-10-18T22:53:50.234Z,54.11
2022-10-18T22:56:18.890Z,54.63
2022-10-18T22:58:45.975Z,54.14
2022-10-18T23:01:15.575Z,54.72
2022-10-18T23:03:42.393Z,54.64
2022-10-18T23:06:23.961Z,54.19
2022-10-18T23:08:52.272Z,54.43
2022-10-18T23:11:19.269Z,54.80
2022-10-18T23:13:46.030Z,54.39
2022-10-18T23:16:13.221Z,54.87
2022-10-18T23:21:13.783Z,54.27
2022-10-18T23:23:42.059Z,54.20
2022-10-18T23:26:14.216Z,54.65
2022-10-18T23:28:43.519Z,54.13
2022-10-18T23:31:12.937Z,54.67
2022-10-18T23:33:40.337Z,54.27
2022-10-18T23:36:08.125Z,54.34
2022-10-18T23:38:37.803Z,54.54
2022-10-18T23:41:08.653Z,55.02
2022-10-18T23:43:35.718Z,54.21
2022-10-18T23:46:02.352Z,54.72
2022-10-18T23:48:28.918Z,54.51
2022-10-18T23:50:55.642Z,54.91
2022-10-18T23:53:22.895Z,54.16
2022-10-18T23:55:55.770Z,54.46
2022-10-18T23:58:22.608Z,55.03
